createdAt,value
2023-02-19T00:00:05.947Z,99686.44
2023-02-19T00:05:15.627Z,99677.06
2023-02-19T00:10:19.344Z,99668.38
2023-02-19T00:15:21.782Z,99676.34
2023-02-19T00:20:24.241Z,99664.78
2023-02-19T00:25:26.783Z,99664.31
2023-02-19T00:30:29.389Z,99654.63
2023-02-19T00:35:37.355Z,99648.00
2023-02-19T00:40:40.017Z,99653.34
2023-02-19T00:45:42.571Z,99646.19
2023-02-19T00:50:45.015Z,99656.44
2023-02-19T00:55:47.579Z,99649.63
2023-02-19T01:00:50.086Z,99656.69
2023-02-19T01:05:53.845Z,99653.44
2023-02-19T01:10:56.395Z,99649.16
2023-02-19T01:16:07.316Z,99648.69
2023-02-19T01:21:14.623Z,99653.03
2023-02-19T01:26:23.393Z,99656.19
2023-02-19T01:31:26.077Z,99661.38
2023-02-19T01:36:30.470Z,99679.28
2023-02-19T01:41:36.524Z,99681.78
2023-02-19T01:46:43.219Z,99686.59
2023-02-19T01:51:49.696Z,99692.53
2023-02-19T01:56:54.761Z,99697.19
2023-02-19T02:01:57.362Z,99708.41
2023-02-19T02:07:03.514Z,99708.41
2023-02-19T02:12:06.248Z,99704.44
2023-02-19T02:17:25.090Z,99706.25
2023-02-19T02:22:53.800Z,99718.28
2023-02-19T02:28:20.846Z,99718.44
2023-02-19T02:33:36.671Z,99711.44
2023-02-19T02:38:43.628Z,99722.81
2023-02-19T02:43:46.931Z,99728.22
2023-02-19T02:48:58.922Z,99729.72
2023-02-19T02:54:26.163Z,99723.69
2023-02-19T02:59:34.624Z,99723.44
2023-02-19T03:05:14.785Z,99731.53
2023-02-19T03:10:31.091Z,99733.00
2023-02-19T03:16:03.272Z,99739.94
2023-02-19T03:21:07.602Z,99739.88
2023-02-19T03:26:15.346Z,99741.31
2023-02-19T03:31:27.396Z,99752.88
2023-02-19T03:36:43.217Z,99750.63
2023-02-19T03:41:55.747Z,99746.78
2023-02-19T03:47:11.436Z,99756.03
2023-02-19T03:52:35.657Z,99758.06
2023-02-19T03:57:47.688Z,99770.03
2023-02-19T04:03:00.712Z,99780.44
2023-02-19T04:08:16.120Z,99789.09
2023-02-19T04:13:43.463Z,99785.22
2023-02-19T04:18:50.230Z,99788.53
2023-02-19T04:23:52.912Z,99789.25
2023-02-19T04:28:55.451Z,99794.28
2023-02-19T04:33:57.984Z,99788.34
2023-02-19T04:39:00.780Z,99805.59
2023-02-19T04:44:03.307Z,99798.69
2023-02-19T04:49:05.789Z,99800.84
2023-02-19T04:54:08.709Z,99810.63
2023-02-19T04:59:11.130Z,99800.69
2023-02-19T05:04:13.602Z,99799.78
2023-02-19T05:09:16.212Z,99799.44
2023-02-19T05:14:18.833Z,99816.63
2023-02-19T05:19:21.411Z,99798.31
2023-02-19T05:24:24.634Z,99811.56
2023-02-19T05:29:27.206Z,99812.94
2023-02-19T05:34:29.892Z,99818.91
2023-02-19T05:39:32.392Z,99822.03
2023-02-19T05:44:34.892Z,99831.84
2023-02-19T05:49:37.446Z,99832.00
2023-02-19T05:54:39.860Z,99833.16
2023-02-19T05:59:42.357Z,99837.00
2023-02-19T06:04:44.857Z,99822.22
2023-02-19T06:09:51.081Z,99833.16
2023-02-19T06:14:53.710Z,99831.66
2023-02-19T06:19:56.254Z,99833.66
2023-02-19T06:24:58.870Z,99845.06
2023-02-19T06:30:01.512Z,99843.66
2023-02-19T06:35:05.738Z,99842.16
2023-02-19T06:40:08.799Z,99842.72
2023-02-19T06:45:11.318Z,99846.69
2023-02-19T06:50:13.919Z,99845.78
2023-02-19T06:55:16.437Z,99846.44
2023-02-19T07:00:19.074Z,99846.72
2023-02-19T07:05:21.558Z,99848.81
2023-02-19T07:10:23.992Z,99848.53
2023-02-19T07:15:26.460Z,99853.19
2023-02-19T07:20:28.885Z,99852.75
2023-02-19T07:25:31.807Z,99865.03
2023-02-19T07:30:34.675Z,99865.38
2023-02-19T07:35:37.415Z,99868.91
2023-02-19T07:40:39.843Z,99866.50
2023-02-19T07:45:42.313Z,99872.56
2023-02-19T07:50:53.165Z,99860.59
2023-02-19T07:56:01.037Z,99874.56
2023-02-19T08:01:20.124Z,99869.75
2023-02-19T08:06:22.734Z,99878.00
2023-02-19T08:11:43.483Z,99883.19
2023-02-19T08:16:52.716Z,99877.78
2023-02-19T08:21:55.283Z,99885.69
2023-02-19T08:26:57.929Z,99878.50
2023-02-19T08:32:00.561Z,99882.13
2023-02-19T08:37:03.123Z,99884.28
2023-02-19T08:42:05.785Z,99884.84
2023-02-19T08:47:08.347Z,99887.13
2023-02-19T08:52:10.853Z,99881.00
2023-02-19T08:57:13.298Z,99880.16
2023-02-19T09:02:17.066Z,99888.56
2023-02-19T09:07:19.897Z,99895.69
2023-02-19T09:12:22.500Z,99894.22
2023-02-19T09:17:25.210Z,99897.19
2023-02-19T09:22:27.725Z,99895.03
2023-02-19T09:27:31.908Z,99883.47
2023-02-19T09:32:34.417Z,99890.59
2023-02-19T09:37:36.929Z,99895.75
2023-02-19T09:42:42.413Z,99890.00
2023-02-19T09:47:45.149Z,99884.94
2023-02-19T09:52:55.122Z,99887.38
2023-02-19T09:58:00.958Z,99892.91
2023-02-19T10:03:31.965Z,99903.56
2023-02-19T10:08:36.160Z,99902.38
2023-02-19T10:13:48.314Z,99911.88
2023-02-19T10:18:51.278Z,99912.22
2023-02-19T10:24:01.766Z,99908.47
2023-02-19T10:29:05.263Z,99909.47
2023-02-19T10:34:19.183Z,99901.41
2023-02-19T10:39:39.206Z,99909.75
2023-02-19T10:44:47.755Z,99915.84
2023-02-19T10:49:52.354Z,99913.03
2023-02-19T10:55:14.832Z,99921.13
2023-02-19T11:00:30.498Z,99918.00
2023-02-19T11:05:35.211Z,99923.25
2023-02-19T11:10:42.698Z,99923.13
2023-02-19T11:15:53.408Z,99942.94
2023-02-19T11:20:59.257Z,99929.78
2023-02-19T11:26:07.584Z,99945.16
2023-02-19T11:31:35.973Z,99953.72
2023-02-19T11:36:39.133Z,99952.47
2023-02-19T11:42:06.494Z,99953.88
2023-02-19T11:47:33.724Z,99954.66
2023-02-19T11:52:42.379Z,99957.91
2023-02-19T11:57:48.956Z,99971.59
2023-02-19T12:03:28.898Z,99968.28
2023-02-19T12:08:31.320Z,99980.19
2023-02-19T12:14:08.035Z,99981.88
2023-02-19T12:19:56.563Z,99998.59
2023-02-19T12:25:07.869Z,100002.75
2023-02-19T12:30:28.655Z,100009.75
2023-02-19T12:35:43.246Z,100015.72
2023-02-19T12:40:58.022Z,100018.03
2023-02-19T12:46:13.259Z,100019.41
2023-02-19T12:51:58.985Z,100032.53
2023-02-19T12:57:20.507Z,100033.66
2023-02-19T13:02:50.977Z,100035.00
2023-02-19T13:08:23.408Z,100037.84
2023-02-19T13:13:42.289Z,100042.47
2023-02-19T13:18:56.107Z,100040.78
2023-02-19T13:23:58.855Z,100053.63
2023-02-19T13:29:20.109Z,100062.25
2023-02-19T13:35:01.159Z,100063.25
2023-02-19T13:40:18.656Z,100062.25
2023-02-19T13:45:43.937Z,100081.03
2023-02-19T13:50:46.440Z,100076.72
2023-02-19T13:55:53.197Z,100093.81
2023-02-19T14:00:55.791Z,100096.13
2023-02-19T14:06:06.662Z,100089.81
2023-02-19T14:11:09.436Z,100101.25
2023-02-19T14:16:35.142Z,100098.78
2023-02-19T14:21:40.906Z,100102.25
2023-02-19T14:26:43.848Z,100106.88
2023-02-19T14:31:47.706Z,100099.38
2023-02-19T14:36:55.791Z,100105.84
2023-02-19T14:42:20.031Z,100108.44
2023-02-19T14:47:24.972Z,100101.91
2023-02-19T14:52:32.601Z,100114.81
2023-02-19T14:57:45.925Z,100107.16
2023-02-19T15:02:53.174Z,100127.13
2023-02-19T15:07:59.890Z,100135.03
2023-02-19T15:13:08.603Z,100133.97
2023-02-19T15:18:35.920Z,100141.47
2023-02-19T15:23:39.189Z,100138.94
2023-02-19T15:28:41.724Z,100151.81
2023-02-19T15:33:54.101Z,100151.47
2023-02-19T15:38:59.948Z,100156.78
2023-02-19T15:44:08.400Z,100158.25
2023-02-19T15:49:21.140Z,100149.63
2023-02-19T15:54:34.516Z,100159.19
2023-02-19T15:59:42.564Z,100159.31
2023-02-19T16:04:45.988Z,100163.09
2023-02-19T16:09:48.553Z,100169.16
2023-02-19T16:14:51.360Z,100169.78
2023-02-19T16:20:03.694Z,100160.09
2023-02-19T16:25:08.465Z,100159.34
2023-02-19T16:30:28.357Z,100186.06
2023-02-19T16:35:40.139Z,100174.56
2023-02-19T16:41:06.643Z,100174.34
2023-02-19T16:46:12.709Z,100185.50
2023-02-19T16:51:27.765Z,100173.03
2023-02-19T16:56:32.702Z,100169.00
2023-02-19T17:01:37.281Z,100175.25
2023-02-19T17:06:39.887Z,100165.81
2023-02-19T17:11:44.119Z,100158.63
2023-02-19T17:16:47.251Z,100169.53
2023-02-19T17:21:51.761Z,100171.75
2023-02-19T17:26:54.288Z,100172.19
2023-02-19T17:31:57.001Z,100189.34
2023-02-19T17:36:59.976Z,100180.72
2023-02-19T17:42:06.351Z,100185.47
2023-02-19T17:47:09.022Z,100177.28
2023-02-19T17:52:12.583Z,100181.47
2023-02-19T17:57:15.165Z,100185.75
2023-02-19T18:02:17.683Z,100190.13
2023-02-19T18:07:20.260Z,100172.59
2023-02-19T18:12:22.830Z,100185.81
2023-02-19T18:17:25.696Z,100192.91
2023-02-19T18:22:28.238Z,100193.34
2023-02-19T18:27:30.904Z,100184.88
2023-02-19T18:32:33.443Z,100204.50
2023-02-19T18:37:36.021Z,100198.69
2023-02-19T18:42:39.437Z,100210.34
2023-02-19T18:47:41.925Z,100220.38
2023-02-19T18:52:44.985Z,100219.56
2023-02-19T18:57:48.342Z,100212.63
2023-02-19T19:02:51.654Z,100206.88
2023-02-19T19:07:56.611Z,100212.19
2023-02-19T19:12:59.240Z,100202.34
2023-02-19T19:18:03.015Z,100206.00
2023-02-19T19:23:06.846Z,100203.22
2023-02-19T19:28:09.407Z,100197.97
2023-02-19T19:33:12.113Z,100206.41
2023-02-19T19:38:16.660Z,100215.72
2023-02-19T19:43:19.186Z,100213.22
2023-02-19T19:48:22.668Z,100222.41
2023-02-19T19:53:25.260Z,100216.56
2023-02-19T19:58:27.788Z,100227.56
2023-02-19T20:03:31.719Z,100232.94
2023-02-19T20:08:35.342Z,100231.28
2023-02-19T20:13:37.898Z,100228.94
2023-02-19T20:18:40.899Z,100218.91
2023-02-19T20:23:43.445Z,100230.44
2023-02-19T20:28:48.743Z,100229.75
2023-02-19T20:33:52.039Z,100235.72
2023-02-19T20:38:54.570Z,100239.19
2023-02-19T20:43:57.436Z,100239.63
2023-02-19T20:49:00.122Z,100250.59
2023-02-19T20:54:02.705Z,100250.44
2023-02-19T20:59:05.182Z,100241.56
2023-02-19T21:04:07.991Z,100252.81
2023-02-19T21:09:10.500Z,100251.28
2023-02-19T21:14:13.032Z,100252.81
2023-02-19T21:19:15.654Z,100249.47
2023-02-19T21:24:18.277Z,100249.72
2023-02-19T21:29:22.877Z,100245.13
2023-02-19T21:34:28.062Z,100255.16
2023-02-19T21:39:32.536Z,100245.16
2023-02-19T21:44:35.176Z,100248.75
2023-02-19T21:49:37.689Z,100243.09
2023-02-19T21:54:40.080Z,100250.75
2023-02-19T21:59:42.511Z,100243.53
2023-02-19T22:04:44.987Z,100228.53
2023-02-19T22:09:48.936Z,100227.94
2023-02-19T22:14:52.899Z,100231.00
2023-02-19T22:19:55.411Z,100233.94
2023-02-19T22:24:57.960Z,100233.09
2023-02-19T22:30:00.581Z,100239.63
2023-02-19T22:35:03.101Z,100229.75
2023-02-19T22:40:06.737Z,100232.25
2023-02-19T22:45:11.871Z,100232.97
2023-02-19T22:50:19.733Z,100239.91
2023-02-19T22:55:22.505Z,100234.19
2023-02-19T23:00:24.976Z,100228.47
2023-02-19T23:05:27.466Z,100228.06
2023-02-19T23:10:29.995Z,100227.78
2023-02-19T23:15:32.527Z,100221.25
2023-02-19T23:20:35.617Z,100217.63
2023-02-19T23:25:38.045Z,100206.94
2023-02-19T23:30:40.569Z,100193.06
2023-02-19T23:35:43.100Z,100196.25
2023-02-19T23:40:45.802Z,100198.09
2023-02-19T23:45:48.403Z,100205.03
2023-02-19T23:50:50.915Z,100203.91
2023-02-19T23:55:53.364Z,100205.44
